Terminal Aerodrome Forecast
Issued by NWS Louisville, KY

Home | Current Version | Previous Version | Text Only | Print | Product List | Glossary On
Versions: 1 2 3 4 5 6 7 8 9 10 11 12 13 14 15 16 17 18 19 20 21 22 23 24
366
FTUS43 KLMK 161420 AAA
TAFLEX
TAF AMD
KLEX 161420Z 1614/1712 10005KT P6SM SCT005 BKN040
     FM161600 12005KT P6SM BKN008
     FM161800 17006KT P6SM BKN021
     FM162000 15006KT P6SM VCSH BKN040
     FM170500 18010KT 3SM SHRA VCTS BKN006CB=

USA.gov is the U.S. government's official web portal to all federal, state and local government web resources and services.